createdAt,value
2023-07-25T00:02:33.577Z,96817.56
2023-07-25T00:07:37.052Z,97102.31
2023-07-25T00:12:40.963Z,97072.44
2023-07-25T00:17:45.741Z,97103.41
2023-07-25T00:22:49.140Z,97101.81
2023-07-25T00:27:52.569Z,96967.09
2023-07-25T00:32:57.404Z,97105.34
2023-07-25T00:38:00.963Z,97031.16
2023-07-25T00:43:04.355Z,96975.22
2023-07-25T00:48:09.343Z,97065.66
2023-07-25T00:53:14.439Z,97000.72
2023-07-25T00:58:19.813Z,97066.44
2023-07-25T01:03:24.667Z,97049.03
2023-07-25T01:08:28.126Z,97054.47
2023-07-25T01:13:31.606Z,96990.44
2023-07-25T01:18:36.621Z,97050.69
2023-07-25T01:23:40.948Z,97059.38
2023-07-25T01:28:47.023Z,96811.38
2023-07-25T01:33:50.492Z,97044.69
2023-07-25T01:39:12.432Z,97031.09
2023-07-25T01:44:17.227Z,97028.09
2023-07-25T01:49:20.684Z,97013.19
2023-07-25T01:54:24.441Z,96952.94
2023-07-25T01:59:30.559Z,96939.38
2023-07-25T02:04:33.992Z,97002.34
2023-07-25T02:09:55.636Z,96911.19
2023-07-25T02:15:00.565Z,96999.63
2023-07-25T02:20:04.848Z,96990.69
2023-07-25T02:25:09.098Z,96899.81
2023-07-25T02:30:14.210Z,96985.53
2023-07-25T02:35:17.833Z,96987.72
2023-07-25T02:40:21.232Z,96976.31
2023-07-25T02:45:26.057Z,96974.41
2023-07-25T02:50:29.800Z,96970.59
2023-07-25T02:55:33.235Z,96972.50
2023-07-25T03:00:38.030Z,96942.94
2023-07-25T03:05:41.505Z,96978.50
2023-07-25T03:10:45.234Z,96959.75
2023-07-25T03:15:50.144Z,96949.16
2023-07-25T03:20:53.579Z,96937.78
2023-07-25T03:25:57.019Z,96941.59
2023-07-25T03:31:01.838Z,96909.59
2023-07-25T03:36:06.073Z,96858.88
2023-07-25T03:41:09.544Z,96953.53
2023-07-25T03:46:14.587Z,96972.25
2023-07-25T03:51:18.048Z,96915.56
2023-07-25T03:56:21.492Z,96643.03
2023-07-25T04:01:26.264Z,96783.75
2023-07-25T04:06:29.909Z,96971.44
2023-07-25T04:11:53.072Z,96932.38
2023-07-25T04:16:57.904Z,96964.13
2023-07-25T04:22:01.314Z,96908.22
2023-07-25T04:27:05.118Z,96957.88
2023-07-25T04:32:10.456Z,96925.06
2023-07-25T04:37:13.840Z,96949.47
2023-07-25T04:42:17.299Z,96955.69
2023-07-25T04:47:22.132Z,96980.13
2023-07-25T04:52:25.762Z,96741.47
2023-07-25T04:57:29.497Z,96872.41
2023-07-25T05:02:34.382Z,96960.06
2023-07-25T05:07:37.863Z,96819.78
2023-07-25T05:12:41.781Z,96951.91
2023-07-25T05:17:46.987Z,96902.25
2023-07-25T05:22:50.477Z,96879.19
2023-07-25T05:27:53.913Z,96989.34
2023-07-25T05:32:58.809Z,96967.38
2023-07-25T05:38:04.059Z,97000.47
2023-07-25T05:43:07.582Z,96985.28
2023-07-25T05:48:12.476Z,96988.53
2023-07-25T05:53:15.910Z,96977.38
2023-07-25T05:58:19.827Z,96989.31
2023-07-25T06:03:24.650Z,97010.53
2023-07-25T06:08:28.354Z,96983.63
2023-07-25T06:13:34.645Z,96996.94
2023-07-25T06:18:39.473Z,96995.28
2023-07-25T06:23:42.963Z,96980.38
2023-07-25T06:28:46.482Z,96994.69
2023-07-25T06:33:51.196Z,96682.94
2023-07-25T06:38:54.676Z,96974.00
2023-07-25T06:43:58.153Z,96985.38
2023-07-25T06:49:03.189Z,96955.78
2023-07-25T06:54:06.615Z,96955.50
2023-07-25T06:59:10.151Z,96961.72
2023-07-25T07:04:14.930Z,96929.63
2023-07-25T07:09:18.464Z,96968.94
2023-07-25T07:14:21.912Z,96963.50
2023-07-25T07:19:26.722Z,96959.41
2023-07-25T07:24:30.438Z,96923.81
2023-07-25T07:29:33.959Z,96896.72
2023-07-25T07:34:38.864Z,96926.38
2023-07-25T07:39:42.538Z,96944.03
2023-07-25T07:44:46.159Z,96813.94
2023-07-25T07:49:51.071Z,96904.06
2023-07-25T07:54:54.728Z,96915.59
2023-07-25T07:59:58.112Z,96887.81
2023-07-25T08:05:02.891Z,96939.22
2023-07-25T08:10:07.321Z,96885.78
2023-07-25T08:15:11.119Z,96940.66
2023-07-25T08:20:16.451Z,96744.78
2023-07-25T08:25:19.900Z,96931.44
2023-07-25T08:30:23.629Z,96568.13
2023-07-25T08:35:28.553Z,96931.19
2023-07-25T08:40:32.036Z,96806.09
2023-07-25T08:45:36.397Z,96836.59
2023-07-25T08:50:44.517Z,96920.75
2023-07-25T08:56:06.988Z,96867.88
2023-07-25T09:01:11.378Z,96917.59
2023-07-25T09:06:16.940Z,96937.97
2023-07-25T09:11:22.431Z,96840.66
2023-07-25T09:16:26.317Z,96910.56
2023-07-25T09:21:31.465Z,96909.41
2023-07-25T09:26:40.321Z,96885.94
2023-07-25T09:31:45.124Z,96872.66
2023-07-25T09:36:50.290Z,96817.47
2023-07-25T09:41:53.727Z,96896.25
2023-07-25T09:46:59.254Z,96895.69
2023-07-25T09:52:06.157Z,96569.72
2023-07-25T09:57:10.380Z,96891.31
2023-07-25T10:02:14.962Z,96887.88
2023-07-25T10:07:20.433Z,96895.38
2023-07-25T10:12:24.586Z,96859.56
2023-07-25T10:17:28.480Z,96885.25
2023-07-25T10:22:38.403Z,96857.72
2023-07-25T10:27:41.948Z,96843.25
2023-07-25T10:32:47.363Z,96846.78
2023-07-25T10:37:54.035Z,96858.94
2023-07-25T10:43:07.490Z,96874.13
2023-07-25T10:48:30.035Z,96863.28
2023-07-25T10:53:36.225Z,96894.97
2023-07-25T10:58:41.217Z,96874.31
2023-07-25T11:03:45.312Z,96870.91
2023-07-25T11:08:50.304Z,96857.50
2023-07-25T11:13:53.927Z,96879.56
2023-07-25T11:18:58.198Z,96879.13
2023-07-25T11:24:06.515Z,96888.09
2023-07-25T11:29:11.265Z,96893.72
2023-07-25T11:34:16.886Z,96895.31
2023-07-25T11:39:21.761Z,96903.03
2023-07-25T11:44:26.085Z,96915.78
2023-07-25T11:49:46.820Z,96935.28
2023-07-25T11:54:53.663Z,96919.19
2023-07-25T11:59:58.092Z,96878.75
2023-07-25T12:05:01.624Z,96884.84
2023-07-25T12:10:07.204Z,96962.03
2023-07-25T12:15:11.163Z,96933.88
2023-07-25T12:20:16.398Z,96970.94
2023-07-25T12:25:21.264Z,96974.25
2023-07-25T12:30:24.881Z,96977.03
2023-07-25T12:35:28.893Z,97039.63
2023-07-25T12:40:33.794Z,96959.91
2023-07-25T12:45:37.362Z,96755.25
2023-07-25T12:50:41.406Z,96985.94
2023-07-25T12:55:46.327Z,96990.81
2023-07-25T13:00:50.031Z,97002.47
2023-07-25T13:05:53.979Z,97030.16
2023-07-25T13:10:58.827Z,97020.66
2023-07-25T13:16:02.425Z,96680.25
2023-07-25T13:21:05.936Z,97039.75
2023-07-25T13:26:10.880Z,97029.94
2023-07-25T13:31:14.364Z,97015.34
2023-07-25T13:36:17.941Z,96990.44
2023-07-25T13:41:22.734Z,97053.94
2023-07-25T13:46:26.368Z,96929.94
2023-07-25T13:51:30.002Z,97050.16
2023-07-25T13:56:35.699Z,97061.56
2023-07-25T14:01:39.420Z,97031.13
2023-07-25T14:06:43.169Z,97063.13
2023-07-25T14:11:51.228Z,97062.00
2023-07-25T14:16:54.712Z,96796.19
2023-07-25T14:21:58.417Z,97046.28
2023-07-25T14:27:03.571Z,97016.41
2023-07-25T14:32:08.194Z,97037.28
2023-07-25T14:37:11.757Z,97026.09
2023-07-25T14:42:16.617Z,96879.09
2023-07-25T14:47:20.422Z,97056.97
2023-07-25T14:52:24.029Z,96931.06
2023-07-25T14:57:28.982Z,97088.53
2023-07-25T15:02:32.570Z,97095.84
2023-07-25T15:07:36.560Z,97006.22
2023-07-25T15:12:41.761Z,97040.69
2023-07-25T15:17:45.335Z,97079.56
2023-07-25T15:22:48.961Z,96968.66
2023-07-25T15:27:53.794Z,97094.25
2023-07-25T15:32:57.330Z,97086.19
2023-07-25T15:38:00.712Z,97084.69
2023-07-25T15:43:09.667Z,97079.88
2023-07-25T15:48:14.230Z,97068.00
2023-07-25T15:53:17.666Z,97097.06
2023-07-25T15:58:22.515Z,97102.25
2023-07-25T16:03:25.989Z,97081.66
2023-07-25T16:08:29.463Z,97107.19
2023-07-25T16:13:38.784Z,97055.59
2023-07-25T16:18:42.409Z,97114.81
2023-07-25T16:23:45.849Z,97110.47
2023-07-25T16:28:52.578Z,96982.84
2023-07-25T16:33:55.972Z,97129.47
2023-07-25T16:38:59.338Z,97155.06
2023-07-25T16:44:04.745Z,97167.78
2023-07-25T16:49:08.312Z,97151.13
2023-07-25T16:54:11.793Z,97136.09
2023-07-25T16:59:16.671Z,97176.59
2023-07-25T17:04:20.165Z,97236.81
2023-07-25T17:09:23.597Z,97188.16
2023-07-25T17:14:28.345Z,97179.66
2023-07-25T17:19:31.774Z,97205.09
2023-07-25T17:24:35.914Z,97200.06
2023-07-25T17:29:40.786Z,97224.03
2023-07-25T17:34:44.172Z,97233.75
2023-07-25T17:39:48.921Z,97194.97
2023-07-25T17:44:53.742Z,97231.44
2023-07-25T17:49:57.182Z,97211.06
2023-07-25T17:55:00.593Z,97271.34
2023-07-25T18:00:06.439Z,97284.91
2023-07-25T18:05:15.385Z,97284.78
2023-07-25T18:10:18.811Z,97286.94
2023-07-25T18:15:23.732Z,97289.16
2023-07-25T18:20:27.282Z,97299.69
2023-07-25T18:25:30.921Z,97299.38
2023-07-25T18:30:37.112Z,97293.19
2023-07-25T18:35:40.616Z,97317.19
2023-07-25T18:40:44.149Z,97329.09
2023-07-25T18:45:49.026Z,97334.03
2023-07-25T18:50:53.317Z,97159.31
2023-07-25T18:55:56.758Z,97300.06
2023-07-25T19:01:01.703Z,97342.22
2023-07-25T19:06:05.279Z,97377.38
2023-07-25T19:11:08.829Z,97367.94
2023-07-25T19:16:13.963Z,97396.91
2023-07-25T19:21:17.724Z,97363.25
2023-07-25T19:26:21.291Z,97425.38
2023-07-25T19:31:26.324Z,97424.81
2023-07-25T19:36:30.178Z,97438.75
2023-07-25T19:41:36.408Z,97445.91
2023-07-25T19:46:41.307Z,97449.34
2023-07-25T19:51:45.404Z,97456.41
2023-07-25T19:56:49.155Z,97460.16
2023-07-25T20:01:53.965Z,97469.94
2023-07-25T20:06:57.467Z,97456.47
2023-07-25T20:12:00.860Z,97468.03
2023-07-25T20:17:06.022Z,97481.22
2023-07-25T20:22:09.526Z,97473.81
2023-07-25T20:27:13.096Z,97501.16
2023-07-25T20:32:18.084Z,97447.81
2023-07-25T20:37:21.594Z,97508.41
2023-07-25T20:42:25.150Z,97518.50
2023-07-25T20:47:30.213Z,97530.13
2023-07-25T20:52:34.064Z,97384.97
2023-07-25T20:57:37.494Z,97487.25
2023-07-25T21:02:42.555Z,97482.59
2023-07-25T21:07:46.334Z,97526.06
2023-07-25T21:12:49.803Z,97446.34
2023-07-25T21:18:06.609Z,97521.59
2023-07-25T21:23:15.064Z,97551.28
2023-07-25T21:28:18.573Z,97540.13
2023-07-25T21:33:26.813Z,97556.88
2023-07-25T21:38:30.694Z,97570.81
2023-07-25T21:43:34.294Z,97559.06
2023-07-25T21:48:39.256Z,97566.50
2023-07-25T21:53:44.222Z,97542.00
2023-07-25T21:58:47.869Z,97543.16
2023-07-25T22:03:52.796Z,97551.81
2023-07-25T22:08:56.290Z,97588.47
2023-07-25T22:13:59.841Z,97583.88
2023-07-25T22:19:04.664Z,97574.03
2023-07-25T22:24:08.114Z,97586.81
2023-07-25T22:29:11.665Z,97594.84
2023-07-25T22:34:16.487Z,97554.25
2023-07-25T22:39:20.082Z,97608.72
2023-07-25T22:44:23.714Z,97526.38
2023-07-25T22:49:28.755Z,97503.66
2023-07-25T22:54:32.211Z,97515.16
2023-07-25T22:59:35.821Z,97476.28
2023-07-25T23:04:40.765Z,97563.59
2023-07-25T23:09:44.269Z,97568.22
2023-07-25T23:14:47.969Z,97493.81
2023-07-25T23:19:53.008Z,97636.00
2023-07-25T23:24:56.985Z,97593.78
2023-07-25T23:30:00.836Z,97650.84
2023-07-25T23:35:06.231Z,97654.81
2023-07-25T23:40:10.515Z,97579.13
2023-07-25T23:45:14.148Z,97639.81
2023-07-25T23:50:19.183Z,97666.59
2023-07-25T23:55:22.695Z,97647.56
